Mountain View, CA (94041)

8:51 AM PST en Febrero 27, 2015 (GMT -0800)
Old Mountain View | Change Station
CLOSE
Current Station
Estación meteorológica personal
Location: Mountain View, CA
Altura: 112 ft
Estaciones meteorológicas cercanas

Alt 112 ft 37.39 °N, 122.08 °W | Updated 8 minutes ago

Parcialmente nublado
Parcialmente nublado
57.6 ° F
Sensación térmica 57.6 ° F
N
0.0
Viento Variable Viento desde SO

Hoy
Alta -- | Baja -- ° F
--% Posibilidad de precipitaciones
Ayer
Alta -- | Baja -- ° F
Precip. -- pul
6:42 AM 6:00 PM
Gibosa creciente, 70% visible
Presión 29.90 pul
Visibilidad 10.0 Millas
Nubes Muy nublado 2400 ft
Punto de rocío 49 ° F
Humedad 74%
Precipitaciones 0.00 pul
Espesor de la nieve No disponible.
UV 1 de una escala de 12
Polen 7.80 de una escala de 12
Calidad del aire No disponible.
Flu Activity No disponible.
SPECI KNUQ 271646Z 29008KT 10SM BKN024 14/09 A2990 RMK AO2

More Conditions Fewer Conditions

Presión 29.90 pul
Visibilidad 10.0 Millas
Nubes Muy nublado 2400 ft
Punto de rocío 49 ° F
Humedad 74%
Precipitaciones 0.00 pul
Espesor de la nieve No disponible.
UV 1 de una escala de 12
Polen 7.80 de una escala de 12
Calidad del aire No disponible.
Flu Activity No disponible.
SPECI KNUQ 271646Z 29008KT 10SM BKN024 14/09 A2990 RMK AO2

More Conditions Fewer Conditions

10-Day Weather Forecast

Almanac

Astronomía

Feb. 27, 2015 Salida Puesta
Hora real
Crepúsculo civil
Crepúsculo náutico
Crepúsculo astronómico
Luna
Horas de luz
Horas de luz
Tomorrow will be .
, % of the Moon is Illuminated

Extremos de hoy

Máximos del estado Bajos del estado

Community

WunderPhotos

Upload Photos

1,800,732 ¡fotos cargadas!

WunderBlogs® & News

Nearby

Calidad del aire

  Calidad del aire Índice AQ Contaminante
Not available.

Grosos de nieve

Estación Profundido Altura

Actividad de terremotos

Ciudad Distance Mag. Tiempo y dato
Magnitud mínima muestra es 2,5.

Temperaturas de aguas costeras

Lugar Temperatura

Estaciones meteorológicas cercanas